Madison, WI

8:00 PM CST on February 16, 2019 (GMT -0600)
Atmospheric, Oceanic and Space Sciences Building | | Change Station
Active Advisory: Winter Weather Advisory

Elev 896 ft 43.07 °N, 89.41 °W | Updated 15 seconds ago

Overcast
Overcast
19.4 °F
Feels Like 7 °F
N
11.1
Wind Variable Wind from ENE
Gusts 16.5 mph

Today
High -- | Low -- °F
--% Chance of Precip.
Yesterday
High -- | Low -- °F
Precip. -- in
Pressure 30.09 in
Visibility 10.0 miles
Clouds Overcast 2700 ft
Windchill 7 °F
Dew Point 14 °F
Humidity 80%
Rainfall 0.00 in
Snow Depth Not available.
6:54 AM 5:29 PM
Waxing Gibbous, 90% visible
METAR KMSN 170153Z 06012KT 10SM OVC027 M07/M11 A3004 RMK AO2 SLP189 T10721106
Pressure 30.09 in
Visibility 10.0 miles
Clouds Overcast 2700 ft
Windchill 7 °F
Dew Point 14 °F
Humidity 80%
Rainfall 0.00 in
Snow Depth Not available.
6:54 AM 5:29 PM
Waxing Gibbous, 90% visible
METAR KMSN 170153Z 06012KT 10SM OVC027 M07/M11 A3004 RMK AO2 SLP189 T10721106

Get Your Daily Forecast Email!

Thanks for signing up!

Be on the lookout for a verification email in your inbox.

You'll start receiving severe weather alerts in your inbox..

×

10-Day Weather Forecast

Almanac

Astronomy

Feb. 16, 2019 Rise Set
Actual Time
Civil Twilight
Nautical Twilight
Astronomical Twilight
Moon
Length of Visible Light
Length of Day
Tomorrow will be .
, % of the Moon is Illuminated

Today's Extremes

State Highs State Lows

Community

WunderPhotos

Category 6

Welcome to Category 6. This is the collective home for Weather Underground's featured writeups by Dr. Jeff Masters (right), Bob Henson (left), Chris Burt, and other regular contributors.

Nearby

Air Quality

  Air Quality AQ Index Pollutant
Not available.

Snow Depth

Station Depth Elevation

Earthquake Activity

City Distance Mag. Time & Date
Minimum magnitude displayed is 2.5.

Coastal Water Temperatures

Place Temperature

Stations

Nearby Weather Stations

Station Location Temp. Windchill Dew Point Humidity Wind Precip. Elev Updated Type
                   

Watches & Warnings

Winter Weather Advisory
Issued: 1:52 PM CST Feb. 16, 2019 – National Weather Service

... Winter Weather Advisory in effect from 3 am Sunday to 3 am CST
Monday...

* what... snow expected. Total snow accumulations of 2 to 5 inches
expected. The highest amounts will be across south central and
southwestern Wisconsin.

* Where... portions of south central and southeast Wisconsin.

* When... from 3 am Sunday to 3 am CST Monday.

* Additional details... plan on slippery Road conditions.

Precautionary/preparedness actions...

A Winter Weather Advisory for snow means periods of snow will
cause primarily travel difficulties. Expect snow covered roads
and limited visibilities, and use caution while driving.

The latest Road conditions for the state you are calling from can
be obtained by calling 5 1 1.